createdAt,value
2023-01-26T00:00:47.948Z,89.49
2023-01-26T00:05:41.846Z,89.48
2023-01-26T00:10:37.780Z,89.54
2023-01-26T00:15:31.030Z,89.59
2023-01-26T00:20:25.578Z,90.05
2023-01-26T00:25:18.909Z,89.50
2023-01-26T00:30:13.772Z,89.69
2023-01-26T00:35:07.766Z,90.10
2023-01-26T00:40:04.227Z,90.16
2023-01-26T00:44:57.517Z,89.92
2023-01-26T00:49:50.730Z,89.85
2023-01-26T00:54:45.846Z,89.92
2023-01-26T00:59:42.509Z,89.50
2023-01-26T01:04:35.705Z,89.38
2023-01-26T01:09:29.113Z,89.52
2023-01-26T01:14:22.467Z,89.71
2023-01-26T01:19:18.502Z,89.58
2023-01-26T01:24:12.381Z,89.63
2023-01-26T01:29:05.744Z,89.79
2023-01-26T01:33:59.189Z,89.69
2023-01-26T01:38:54.102Z,90.05
2023-01-26T01:43:47.441Z,89.85
2023-01-26T01:48:49.093Z,89.74
2023-01-26T01:53:47.471Z,89.43
2023-01-26T01:58:44.578Z,89.58
2023-01-26T02:03:39.217Z,89.70
2023-01-26T02:08:38.240Z,89.21
2023-01-26T02:13:34.777Z,90.09
2023-01-26T02:18:31.543Z,89.76
2023-01-26T02:23:37.519Z,90.33
2023-01-26T02:28:33.012Z,89.97
2023-01-26T02:33:28.462Z,89.69
2023-01-26T02:38:31.218Z,89.73
2023-01-26T02:43:26.948Z,89.61
2023-01-26T02:48:36.062Z,89.82
2023-01-26T02:53:30.440Z,89.83
2023-01-26T02:58:23.825Z,89.83
2023-01-26T03:03:20.126Z,89.83
2023-01-26T03:08:14.832Z,89.89
2023-01-26T03:13:10.814Z,89.36
2023-01-26T03:18:23.190Z,89.56
2023-01-26T03:23:35.547Z,89.86
2023-01-26T03:28:29.101Z,89.73
2023-01-26T03:33:22.714Z,89.75
2023-01-26T03:38:17.642Z,89.29
2023-01-26T03:43:32.812Z,89.60
2023-01-26T03:48:43.847Z,89.53
2023-01-26T03:53:55.975Z,89.85
2023-01-26T03:58:51.773Z,90.13
2023-01-26T04:04:03.392Z,90.01
2023-01-26T04:08:58.122Z,90.39
2023-01-26T04:14:08.779Z,90.27
2023-01-26T04:19:19.976Z,90.23
2023-01-26T04:24:18.030Z,90.12
2023-01-26T04:29:14.192Z,90.08
2023-01-26T04:34:12.990Z,90.47
2023-01-26T04:39:09.605Z,90.44
2023-01-26T04:44:06.958Z,90.95
2023-01-26T04:49:00.320Z,91.52
2023-01-26T04:53:54.383Z,91.49
2023-01-26T04:58:49.044Z,91.46
2023-01-26T05:03:44.381Z,91.48
2023-01-26T05:08:40.450Z,91.61
2023-01-26T05:13:36.171Z,91.57
2023-01-26T05:18:57.229Z,91.92
2023-01-26T05:24:09.753Z,91.47
2023-01-26T05:29:23.313Z,91.56
2023-01-26T05:34:18.642Z,91.32
2023-01-26T05:39:12.465Z,91.31
2023-01-26T05:44:08.164Z,91.59
2023-01-26T05:49:19.969Z,91.46
2023-01-26T05:54:13.826Z,91.58
2023-01-26T05:59:07.344Z,91.57
2023-01-26T06:04:00.928Z,91.17
2023-01-26T06:09:02.727Z,91.40
2023-01-26T06:13:58.708Z,92.16
2023-01-26T06:18:53.677Z,92.05
2023-01-26T06:23:47.498Z,92.04
2023-01-26T06:28:42.923Z,92.35
2023-01-26T06:33:37.817Z,92.23
2023-01-26T06:38:32.901Z,92.91
2023-01-26T06:43:26.263Z,92.39
2023-01-26T06:48:20.796Z,92.78
2023-01-26T06:53:30.561Z,93.17
2023-01-26T06:58:42.207Z,93.00
2023-01-26T07:03:56.406Z,93.00
2023-01-26T07:08:50.881Z,92.70
2023-01-26T07:13:44.296Z,92.42
2023-01-26T07:18:38.019Z,92.45
2023-01-26T07:23:34.842Z,92.32
2023-01-26T07:28:30.706Z,91.93
2023-01-26T07:33:23.952Z,91.83
2023-01-26T07:38:17.046Z,91.83
2023-01-26T07:43:15.076Z,92.02
2023-01-26T07:48:15.878Z,92.07
2023-01-26T07:53:09.718Z,92.01
2023-01-26T07:58:02.949Z,91.99
2023-01-26T08:02:57.679Z,91.76
2023-01-26T08:07:50.890Z,91.71
2023-01-26T08:12:44.110Z,91.16
2023-01-26T08:17:38.624Z,90.59
2023-01-26T08:22:33.173Z,90.31
2023-01-26T08:27:26.240Z,90.20
2023-01-26T08:32:19.318Z,89.24
2023-01-26T08:37:12.594Z,89.50
2023-01-26T08:42:07.486Z,89.64
2023-01-26T08:47:00.697Z,88.98
2023-01-26T08:51:56.304Z,89.09
2023-01-26T08:56:49.579Z,89.08
2023-01-26T09:01:44.156Z,89.13
2023-01-26T09:06:37.363Z,88.88
2023-01-26T09:11:30.617Z,89.20
2023-01-26T09:16:25.223Z,88.71
2023-01-26T09:21:20.635Z,89.25
2023-01-26T09:26:13.886Z,89.48
2023-01-26T09:31:08.536Z,89.55
2023-01-26T09:36:05.455Z,89.74
2023-01-26T09:41:06.745Z,89.38
2023-01-26T09:46:07.731Z,89.96
2023-01-26T09:51:06.099Z,89.88
2023-01-26T09:56:01.421Z,90.35
2023-01-26T10:01:01.450Z,90.80
2023-01-26T10:06:02.572Z,90.61
2023-01-26T10:11:20.841Z,91.41
2023-01-26T10:16:16.433Z,90.72
2023-01-26T10:21:12.114Z,91.16
2023-01-26T10:26:14.811Z,91.11
2023-01-26T10:31:15.447Z,91.36
2023-01-26T10:36:13.631Z,90.75
2023-01-26T10:41:11.382Z,91.00
2023-01-26T10:46:05.684Z,91.16
2023-01-26T10:51:17.484Z,91.00
2023-01-26T10:56:16.338Z,91.13
2023-01-26T11:01:12.621Z,91.46
2023-01-26T11:06:14.653Z,91.52
2023-01-26T11:11:10.563Z,91.40
2023-01-26T11:16:11.649Z,91.68
2023-01-26T11:21:12.941Z,91.71
2023-01-26T11:26:41.192Z,91.90
2023-01-26T11:31:45.157Z,91.71
2023-01-26T11:36:50.851Z,91.82
2023-01-26T11:41:57.414Z,92.39
2023-01-26T11:47:02.900Z,92.27
2023-01-26T11:52:11.042Z,92.21
2023-01-26T11:57:16.430Z,91.81
2023-01-26T12:02:28.869Z,92.14
2023-01-26T12:07:28.425Z,92.21
2023-01-26T12:12:28.320Z,92.38
2023-01-26T12:17:37.833Z,92.89
2023-01-26T12:22:36.064Z,93.00
2023-01-26T12:27:36.317Z,93.01
2023-01-26T12:32:32.513Z,93.07
2023-01-26T12:37:48.459Z,94.05
2023-01-26T12:42:50.865Z,94.42
2023-01-26T12:47:49.755Z,94.82
2023-01-26T12:52:49.289Z,95.19
2023-01-26T12:57:49.234Z,95.47
2023-01-26T13:02:53.522Z,95.48
2023-01-26T13:08:01.629Z,95.47
2023-01-26T13:18:54.762Z,96.42
2023-01-26T13:23:58.208Z,96.18
2023-01-26T13:29:36.429Z,96.76
2023-01-26T13:35:03.996Z,97.38
2023-01-26T13:40:59.333Z,97.67
2023-01-26T13:46:35.100Z,98.00
2023-01-26T13:58:00.422Z,99.23
2023-01-26T14:03:05.587Z,99.25
2023-01-26T14:08:16.378Z,99.61
2023-01-26T14:13:37.447Z,100.00
2023-01-26T14:18:54.940Z,100.00
2023-01-26T14:30:15.710Z,100.00
2023-01-26T14:35:28.987Z,100.00
2023-01-26T14:53:44.051Z,100.00
2023-01-26T14:59:21.491Z,100.00
2023-01-26T15:05:12.704Z,100.00
2023-01-26T15:11:39.777Z,100.00
2023-01-26T15:17:02.267Z,100.00
2023-01-26T15:22:58.751Z,100.00
2023-01-26T15:28:50.579Z,100.00
2023-01-26T15:34:53.074Z,100.00
2023-01-26T15:40:49.863Z,100.00
2023-01-26T15:52:35.682Z,100.00
2023-01-26T16:04:04.054Z,100.00
2023-01-26T16:09:42.154Z,100.00
2023-01-26T16:21:58.209Z,100.00
2023-01-26T16:28:53.399Z,100.00
2023-01-26T16:33:38.566Z,100.00
2023-01-26T16:39:57.567Z,100.00
2023-01-26T16:50:55.480Z,100.00
2023-01-26T16:56:34.373Z,100.00
2023-01-26T17:08:15.266Z,100.00
2023-01-26T17:13:54.817Z,100.00
2023-01-26T17:32:20.204Z,100.00
2023-01-26T17:37:55.876Z,100.00
2023-01-26T17:43:47.763Z,100.00
2023-01-26T17:49:15.673Z,100.00
2023-01-26T17:55:10.901Z,100.00
2023-01-26T18:07:20.290Z,100.00
2023-01-26T18:19:54.301Z,100.00
2023-01-26T18:44:29.608Z,100.00
2023-01-26T18:50:07.568Z,100.00
2023-01-26T18:55:35.973Z,100.00
2023-01-26T19:07:20.262Z,100.00
2023-01-26T19:24:51.723Z,100.00
2023-01-26T19:30:34.457Z,100.00
2023-01-26T19:36:32.315Z,100.00
2023-01-26T19:42:21.723Z,100.00
2023-01-26T19:47:58.727Z,100.00
2023-01-26T19:53:32.199Z,100.00
2023-01-26T19:59:03.982Z,100.00
2023-01-26T20:04:14.854Z,100.00
2023-01-26T20:10:22.142Z,100.00
2023-01-26T20:29:02.666Z,100.00
2023-01-26T20:34:45.911Z,100.00
2023-01-26T20:41:06.771Z,100.00
2023-01-26T21:05:15.514Z,100.00
2023-01-26T21:11:07.328Z,100.00
2023-01-26T21:33:58.675Z,100.00
2023-01-26T21:51:02.422Z,100.00
2023-01-26T21:56:43.215Z,100.00
2023-01-26T22:07:39.157Z,100.00
2023-01-26T22:12:51.766Z,100.00
2023-01-26T22:18:14.441Z,100.00
2023-01-26T22:29:53.486Z,100.00
2023-01-26T22:35:54.464Z,100.00
2023-01-26T22:41:23.001Z,100.00
2023-01-26T22:46:42.592Z,100.00
2023-01-26T22:51:54.395Z,100.00
2023-01-26T22:57:06.107Z,100.00
2023-01-26T23:08:51.901Z,100.00
2023-01-26T23:14:15.260Z,100.00
2023-01-26T23:19:33.868Z,100.00
2023-01-26T23:24:35.767Z,100.00
2023-01-26T23:30:41.580Z,100.00
2023-01-26T23:35:48.315Z,100.00
2023-01-26T23:41:06.373Z,100.00
2023-01-26T23:46:26.623Z,100.00
2023-01-26T23:51:41.120Z,100.00
2023-01-26T23:57:10.855Z,100.00
